sensor_id;sensor_type;location;lat;lon;timestamp;P1;durP1;ratioP1;P2;durP2;ratioP2
7001;SDS011;3541;53.230;10.518;2024-01-16T00:02:00;6.77;;;4.37;;
7001;SDS011;3541;53.230;10.518;2024-01-16T00:04:27;7.17;;;4.37;;
7001;SDS011;3541;53.230;10.518;2024-01-16T00:06:56;5.57;;;4.00;;
7001;SDS011;3541;53.230;10.518;2024-01-16T00:09:22;6.03;;;3.83;;
7001;SDS011;3541;53.230;10.518;2024-01-16T00:11:49;5.93;;;3.43;;
7001;SDS011;3541;53.230;10.518;2024-01-16T00:14:16;4.47;;;3.67;;
7001;SDS011;3541;53.230;10.518;2024-01-16T00:16:43;7.43;;;4.17;;
7001;SDS011;3541;53.230;10.518;2024-01-16T00:19:10;4.17;;;3.70;;
7001;SDS011;3541;53.230;10.518;2024-01-16T00:21:40;5.67;;;3.97;;
7001;SDS011;3541;53.230;10.518;2024-01-16T00:24:08;6.63;;;3.57;;
7001;SDS011;3541;53.230;10.518;2024-01-16T00:26:35;5.73;;;3.83;;
7001;SDS011;3541;53.230;10.518;2024-01-16T00:29:02;6.73;;;3.87;;
7001;SDS011;3541;53.230;10.518;2024-01-16T00:31:28;7.33;;;3.90;;
7001;SDS011;3541;53.230;10.518;2024-01-16T00:33:54;6.77;;;4.50;;
7001;SDS011;3541;53.230;10.518;2024-01-16T00:36:21;7.67;;;3.90;;
7001;SDS011;3541;53.230;10.518;2024-01-16T00:38:47;9.40;;;4.00;;
7001;SDS011;3541;53.230;10.518;2024-01-16T00:41:15;5.87;;;4.07;;
7001;SDS011;3541;53.230;10.518;2024-01-16T00:43:42;6.80;;;4.60;;
7001;SDS011;3541;53.230;10.518;2024-01-16T00:46:10;5.67;;;4.47;;
7001;SDS011;3541;53.230;10.518;2024-01-16T00:48:37;8.73;;;4.80;;
7001;SDS011;3541;53.230;10.518;2024-01-16T00:51:04;6.83;;;4.40;;
7001;SDS011;3541;53.230;10.518;2024-01-16T00:53:31;5.40;;;4.33;;
7001;SDS011;3541;53.230;10.518;2024-01-16T00:55:57;6.33;;;4.47;;
7001;SDS011;3541;53.230;10.518;2024-01-16T00:58:25;6.67;;;4.43;;
7001;SDS011;3541;53.230;10.518;2024-01-16T01:00:52;8.67;;;4.63;;
7001;SDS011;3541;53.230;10.518;2024-01-16T01:03:18;7.43;;;4.43;;
7001;SDS011;3541;53.230;10.518;2024-01-16T01:05:45;7.53;;;4.60;;
7001;SDS011;3541;53.230;10.518;2024-01-16T01:08:11;6.67;;;4.57;;
7001;SDS011;3541;53.230;10.518;2024-01-16T01:10:38;6.07;;;4.73;;
7001;SDS011;3541;53.230;10.518;2024-01-16T01:13:04;6.17;;;4.10;;
7001;SDS011;3541;53.230;10.518;2024-01-16T01:15:32;6.50;;;4.93;;
7001;SDS011;3541;53.230;10.518;2024-01-16T01:17:59;8.43;;;5.60;;
7001;SDS011;3541;53.230;10.518;2024-01-16T01:20:26;6.63;;;4.83;;
7001;SDS011;3541;53.230;10.518;2024-01-16T01:22:52;10.57;;;5.13;;
7001;SDS011;3541;53.230;10.518;2024-01-16T01:25:19;5.07;;;4.20;;
7001;SDS011;3541;53.230;10.518;2024-01-16T01:27:45;6.60;;;4.90;;
7001;SDS011;3541;53.230;10.518;2024-01-16T01:30:12;6.97;;;4.87;;
7001;SDS011;3541;53.230;10.518;2024-01-16T01:32:40;7.17;;;4.70;;
7001;SDS011;3541;53.230;10.518;2024-01-16T01:35:09;7.47;;;4.47;;
7001;SDS011;3541;53.230;10.518;2024-01-16T01:37:36;7.33;;;4.83;;
7001;SDS011;3541;53.230;10.518;2024-01-16T01:40:03;7.23;;;5.03;;
7001;SDS011;3541;53.230;10.518;2024-01-16T01:42:30;7.40;;;4.67;;
7001;SDS011;3541;53.230;10.518;2024-01-16T01:44:57;7.03;;;5.13;;
7001;SDS011;3541;53.230;10.518;2024-01-16T01:47:23;6.80;;;5.33;;
7001;SDS011;3541;53.230;10.518;2024-01-16T01:49:52;9.27;;;5.23;;
7001;SDS011;3541;53.230;10.518;2024-01-16T01:52:18;7.80;;;5.07;;
7001;SDS011;3541;53.230;10.518;2024-01-16T01:54:45;6.93;;;5.13;;
7001;SDS011;3541;53.230;10.518;2024-01-16T01:57:12;7.80;;;5.30;;
7001;SDS011;3541;53.230;10.518;2024-01-16T01:59:39;7.57;;;5.27;;
7001;SDS011;3541;53.230;10.518;2024-01-16T02:02:06;9.13;;;5.43;;
7001;SDS011;3541;53.230;10.518;2024-01-16T02:04:32;7.97;;;5.70;;
7001;SDS011;3541;53.230;10.518;2024-01-16T02:07:03;8.23;;;5.93;;
7001;SDS011;3541;53.230;10.518;2024-01-16T02:09:30;8.33;;;5.50;;
7001;SDS011;3541;53.230;10.518;2024-01-16T02:11:57;7.73;;;5.67;;
7001;SDS011;3541;53.230;10.518;2024-01-16T02:14:24;8.87;;;5.90;;
7001;SDS011;3541;53.230;10.518;2024-01-16T02:16:50;6.70;;;5.50;;
7001;SDS011;3541;53.230;10.518;2024-01-16T02:19:17;6.03;;;5.07;;
7001;SDS011;3541;53.230;10.518;2024-01-16T02:21:46;5.60;;;4.70;;
7001;SDS011;3541;53.230;10.518;2024-01-16T02:24:15;6.00;;;5.37;;
7001;SDS011;3541;53.230;10.518;2024-01-16T02:26:43;8.60;;;5.17;;
7001;SDS011;3541;53.230;10.518;2024-01-16T02:29:10;6.97;;;5.13;;
7001;SDS011;3541;53.230;10.518;2024-01-16T02:31:37;6.37;;;4.60;;
7001;SDS011;3541;53.230;10.518;2024-01-16T02:34:03;7.73;;;5.20;;
7001;SDS011;3541;53.230;10.518;2024-01-16T02:36:30;6.97;;;4.90;;
7001;SDS011;3541;53.230;10.518;2024-01-16T02:38:58;5.97;;;5.07;;
7001;SDS011;3541;53.230;10.518;2024-01-16T02:41:26;6.07;;;5.03;;
7001;SDS011;3541;53.230;10.518;2024-01-16T02:43:52;6.47;;;5.10;;
7001;SDS011;3541;53.230;10.518;2024-01-16T02:46:19;6.97;;;5.23;;
7001;SDS011;3541;53.230;10.518;2024-01-16T02:48:45;5.53;;;4.67;;
7001;SDS011;3541;53.230;10.518;2024-01-16T02:51:12;8.07;;;5.10;;
7001;SDS011;3541;53.230;10.518;2024-01-16T02:53:39;7.33;;;5.30;;
7001;SDS011;3541;53.230;10.518;2024-01-16T02:56:05;7.30;;;5.50;;
7001;SDS011;3541;53.230;10.518;2024-01-16T02:58:34;6.70;;;5.13;;
7001;SDS011;3541;53.230;10.518;2024-01-16T03:01:01;6.87;;;5.17;;
7001;SDS011;3541;53.230;10.518;2024-01-16T03:03:28;8.07;;;5.40;;
7001;SDS011;3541;53.230;10.518;2024-01-16T03:05:54;6.50;;;4.90;;
7001;SDS011;3541;53.230;10.518;2024-01-16T03:08:21;5.80;;;5.10;;
7001;SDS011;3541;53.230;10.518;2024-01-16T03:10:48;8.90;;;5.20;;
7001;SDS011;3541;53.230;10.518;2024-01-16T03:13:15;5.47;;;4.73;;
7001;SDS011;3541;53.230;10.518;2024-01-16T03:15:43;6.53;;;5.00;;
7001;SDS011;3541;53.230;10.518;2024-01-16T03:18:11;7.10;;;5.13;;
7001;SDS011;3541;53.230;10.518;2024-01-16T03:20:37;6.50;;;5.33;;
7001;SDS011;3541;53.230;10.518;2024-01-16T03:23:04;7.83;;;4.80;;
7001;SDS011;3541;53.230;10.518;2024-01-16T03:25:30;8.00;;;5.83;;
7001;SDS011;3541;53.230;10.518;2024-01-16T03:28:02;7.00;;;5.13;;
7001;SDS011;3541;53.230;10.518;2024-01-16T03:30:29;7.37;;;5.33;;
7001;SDS011;3541;53.230;10.518;2024-01-16T03:32:57;6.00;;;5.07;;
7001;SDS011;3541;53.230;10.518;2024-01-16T03:35:24;9.53;;;5.33;;
7001;SDS011;3541;53.230;10.518;2024-01-16T03:37:50;7.40;;;5.00;;
7001;SDS011;3541;53.230;10.518;2024-01-16T03:40:17;8.97;;;5.67;;
7001;SDS011;3541;53.230;10.518;2024-01-16T03:42:43;7.47;;;5.60;;
7001;SDS011;3541;53.230;10.518;2024-01-16T03:45:10;8.07;;;5.30;;
7001;SDS011;3541;53.230;10.518;2024-01-16T03:47:36;9.50;;;5.93;;
7001;SDS011;3541;53.230;10.518;2024-01-16T03:50:05;12.60;;;6.23;;
7001;SDS011;3541;53.230;10.518;2024-01-16T03:52:32;8.07;;;5.67;;
7001;SDS011;3541;53.230;10.518;2024-01-16T03:54:58;7.33;;;5.77;;
7001;SDS011;3541;53.230;10.518;2024-01-16T03:57:25;7.23;;;5.83;;
7001;SDS011;3541;53.230;10.518;2024-01-16T03:59:51;7.90;;;5.73;;
7001;SDS011;3541;53.230;10.518;2024-01-16T04:02:18;9.73;;;5.97;;
7001;SDS011;3541;53.230;10.518;2024-01-16T04:04:44;7.60;;;5.63;;
7001;SDS011;3541;53.230;10.518;2024-01-16T04:07:12;8.27;;;5.63;;
7001;SDS011;3541;53.230;10.518;2024-01-16T04:09:39;8.63;;;6.40;;
7001;SDS011;3541;53.230;10.518;2024-01-16T04:12:06;8.97;;;5.70;;
7001;SDS011;3541;53.230;10.518;2024-01-16T04:14:33;10.23;;;6.30;;
7001;SDS011;3541;53.230;10.518;2024-01-16T04:17:00;10.07;;;5.90;;
7001;SDS011;3541;53.230;10.518;2024-01-16T04:19:27;8.07;;;6.07;;
7001;SDS011;3541;53.230;10.518;2024-01-16T04:21:54;10.27;;;6.10;;
7001;SDS011;3541;53.230;10.518;2024-01-16T04:24:21;9.13;;;6.30;;
7001;SDS011;3541;53.230;10.518;2024-01-16T04:26:48;7.20;;;5.10;;
7001;SDS011;3541;53.230;10.518;2024-01-16T04:29:15;9.97;;;6.27;;
7001;SDS011;3541;53.230;10.518;2024-01-16T04:31:42;8.60;;;6.20;;
7001;SDS011;3541;53.230;10.518;2024-01-16T04:34:08;6.53;;;5.30;;
7001;SDS011;3541;53.230;10.518;2024-01-16T04:36:35;6.97;;;5.47;;
7001;SDS011;3541;53.230;10.518;2024-01-16T04:39:01;7.20;;;5.17;;
7001;SDS011;3541;53.230;10.518;2024-01-16T04:41:30;8.73;;;5.20;;
7001;SDS011;3541;53.230;10.518;2024-01-16T04:43:57;7.33;;;5.37;;
7001;SDS011;3541;53.230;10.518;2024-01-16T04:46:23;6.07;;;5.20;;
7001;SDS011;3541;53.230;10.518;2024-01-16T04:48:50;5.20;;;4.33;;
7001;SDS011;3541;53.230;10.518;2024-01-16T04:51:16;5.50;;;4.10;;
7001;SDS011;3541;53.230;10.518;2024-01-16T04:53:43;5.87;;;3.80;;
7001;SDS011;3541;53.230;10.518;2024-01-16T04:56:09;6.80;;;4.40;;
7001;SDS011;3541;53.230;10.518;2024-01-16T04:58:37;8.00;;;4.70;;
7001;SDS011;3541;53.230;10.518;2024-01-16T05:01:04;6.97;;;4.03;;
7001;SDS011;3541;53.230;10.518;2024-01-16T05:03:30;5.80;;;4.67;;
7001;SDS011;3541;53.230;10.518;2024-01-16T05:05:57;7.47;;;4.20;;
7001;SDS011;3541;53.230;10.518;2024-01-16T05:08:24;5.50;;;4.10;;
7001;SDS011;3541;53.230;10.518;2024-01-16T05:10:50;7.80;;;4.27;;
7001;SDS011;3541;53.230;10.518;2024-01-16T05:13:17;5.30;;;4.10;;
7001;SDS011;3541;53.230;10.518;2024-01-16T05:15:45;5.23;;;3.93;;
7001;SDS011;3541;53.230;10.518;2024-01-16T05:18:11;4.90;;;4.07;;
7001;SDS011;3541;53.230;10.518;2024-01-16T05:20:38;4.33;;;3.57;;
7001;SDS011;3541;53.230;10.518;2024-01-16T05:23:05;4.77;;;3.57;;
7001;SDS011;3541;53.230;10.518;2024-01-16T05:25:32;5.07;;;3.87;;
7001;SDS011;3541;53.230;10.518;2024-01-16T05:27:59;3.90;;;3.30;;
7001;SDS011;3541;53.230;10.518;2024-01-16T05:30:25;7.07;;;3.10;;
7001;SDS011;3541;53.230;10.518;2024-01-16T05:32:53;6.40;;;2.87;;
7001;SDS011;3541;53.230;10.518;2024-01-16T05:35:20;5.10;;;2.60;;
7001;SDS011;3541;53.230;10.518;2024-01-16T05:37:47;4.30;;;2.50;;
7001;SDS011;3541;53.230;10.518;2024-01-16T05:40:13;2.50;;;2.20;;
7001;SDS011;3541;53.230;10.518;2024-01-16T05:42:40;3.00;;;1.63;;
7001;SDS011;3541;53.230;10.518;2024-01-16T05:45:07;1.83;;;1.73;;
7001;SDS011;3541;53.230;10.518;2024-01-16T05:47:34;2.73;;;1.80;;
7001;SDS011;3541;53.230;10.518;2024-01-16T05:50:02;3.17;;;1.60;;
7001;SDS011;3541;53.230;10.518;2024-01-16T05:52:30;2.27;;;1.60;;
7001;SDS011;3541;53.230;10.518;2024-01-16T05:54:56;1.67;;;1.50;;
7001;SDS011;3541;53.230;10.518;2024-01-16T05:57:24;2.30;;;1.73;;
7001;SDS011;3541;53.230;10.518;2024-01-16T05:59:51;2.23;;;1.80;;
7001;SDS011;3541;53.230;10.518;2024-01-16T06:02:18;3.83;;;1.50;;
7001;SDS011;3541;53.230;10.518;2024-01-16T06:04:45;2.20;;;2.00;;
7001;SDS011;3541;53.230;10.518;2024-01-16T06:07:13;2.57;;;2.03;;
7001;SDS011;3541;53.230;10.518;2024-01-16T06:09:40;2.27;;;2.07;;
7001;SDS011;3541;53.230;10.518;2024-01-16T06:12:07;2.70;;;2.20;;
7001;SDS011;3541;53.230;10.518;2024-01-16T06:14:34;3.17;;;2.30;;
7001;SDS011;3541;53.230;10.518;2024-01-16T06:17:00;5.37;;;2.73;;
7001;SDS011;3541;53.230;10.518;2024-01-16T06:19:28;3.80;;;2.73;;
7001;SDS011;3541;53.230;10.518;2024-01-16T06:21:54;4.73;;;2.73;;
7001;SDS011;3541;53.230;10.518;2024-01-16T06:24:22;3.43;;;3.07;;
7001;SDS011;3541;53.230;10.518;2024-01-16T06:26:49;4.43;;;3.23;;
7001;SDS011;3541;53.230;10.518;2024-01-16T06:29:15;7.07;;;3.87;;
7001;SDS011;3541;53.230;10.518;2024-01-16T06:31:42;5.93;;;3.80;;
7001;SDS011;3541;53.230;10.518;2024-01-16T06:34:09;10.43;;;3.93;;
7001;SDS011;3541;53.230;10.518;2024-01-16T06:36:35;6.70;;;4.43;;
7001;SDS011;3541;53.230;10.518;2024-01-16T06:39:02;6.07;;;4.60;;
7001;SDS011;3541;53.230;10.518;2024-01-16T06:41:30;9.13;;;5.00;;
7001;SDS011;3541;53.230;10.518;2024-01-16T06:43:56;8.23;;;5.13;;
7001;SDS011;3541;53.230;10.518;2024-01-16T06:46:23;9.93;;;5.70;;
7001;SDS011;3541;53.230;10.518;2024-01-16T06:48:50;8.93;;;5.70;;
7001;SDS011;3541;53.230;10.518;2024-01-16T06:51:17;11.53;;;5.30;;
7001;SDS011;3541;53.230;10.518;2024-01-16T06:53:43;12.27;;;5.33;;
7001;SDS011;3541;53.230;10.518;2024-01-16T06:56:10;10.63;;;5.30;;
7001;SDS011;3541;53.230;10.518;2024-01-16T06:58:38;7.50;;;4.87;;
7001;SDS011;3541;53.230;10.518;2024-01-16T07:01:04;8.07;;;4.63;;
7001;SDS011;3541;53.230;10.518;2024-01-16T07:03:32;10.00;;;4.87;;
7001;SDS011;3541;53.230;10.518;2024-01-16T07:05:59;9.93;;;4.80;;
7001;SDS011;3541;53.230;10.518;2024-01-16T07:08:26;7.43;;;4.30;;
7001;SDS011;3541;53.230;10.518;2024-01-16T07:10:53;8.47;;;4.97;;
7001;SDS011;3541;53.230;10.518;2024-01-16T07:13:19;9.50;;;4.90;;
7001;SDS011;3541;53.230;10.518;2024-01-16T07:15:47;9.70;;;5.10;;
7001;SDS011;3541;53.230;10.518;2024-01-16T07:18:14;11.20;;;4.43;;
7001;SDS011;3541;53.230;10.518;2024-01-16T07:20:40;10.30;;;4.97;;
7001;SDS011;3541;53.230;10.518;2024-01-16T07:23:07;9.33;;;4.23;;
7001;SDS011;3541;53.230;10.518;2024-01-16T07:25:33;10.13;;;4.53;;
7001;SDS011;3541;53.230;10.518;2024-01-16T07:28:00;7.93;;;4.20;;
7001;SDS011;3541;53.230;10.518;2024-01-16T07:30:27;9.30;;;4.53;;
7001;SDS011;3541;53.230;10.518;2024-01-16T07:32:54;9.43;;;5.97;;
7001;SDS011;3541;53.230;10.518;2024-01-16T07:35:21;8.17;;;4.53;;
7001;SDS011;3541;53.230;10.518;2024-01-16T07:37:47;8.40;;;4.50;;
7001;SDS011;3541;53.230;10.518;2024-01-16T07:40:14;9.67;;;4.77;;
7001;SDS011;3541;53.230;10.518;2024-01-16T07:42:42;8.83;;;3.73;;
7001;SDS011;3541;53.230;10.518;2024-01-16T07:45:08;6.90;;;4.30;;
7001;SDS011;3541;53.230;10.518;2024-01-16T07:47:35;8.27;;;3.90;;
7001;SDS011;3541;53.230;10.518;2024-01-16T07:50:04;7.17;;;4.10;;
7001;SDS011;3541;53.230;10.518;2024-01-16T07:52:31;8.90;;;4.43;;
7001;SDS011;3541;53.230;10.518;2024-01-16T07:54:58;9.27;;;4.30;;
7001;SDS011;3541;53.230;10.518;2024-01-16T07:57:25;8.03;;;3.30;;
7001;SDS011;3541;53.230;10.518;2024-01-16T07:59:51;9.33;;;3.63;;
7001;SDS011;3541;53.230;10.518;2024-01-16T08:02:18;8.00;;;3.80;;
7001;SDS011;3541;53.230;10.518;2024-01-16T08:04:44;10.97;;;3.13;;
7001;SDS011;3541;53.230;10.518;2024-01-16T08:07:12;6.50;;;3.13;;
7001;SDS011;3541;53.230;10.518;2024-01-16T08:09:39;6.63;;;2.80;;
7001;SDS011;3541;53.230;10.518;2024-01-16T08:12:06;7.33;;;3.40;;
7001;SDS011;3541;53.230;10.518;2024-01-16T08:14:33;8.50;;;3.70;;
7001;SDS011;3541;53.230;10.518;2024-01-16T08:16:59;8.73;;;2.83;;
7001;SDS011;3541;53.230;10.518;2024-01-16T08:19:26;5.13;;;2.53;;
7001;SDS011;3541;53.230;10.518;2024-01-16T08:21:52;7.40;;;2.90;;
7001;SDS011;3541;53.230;10.518;2024-01-16T08:24:20;3.00;;;2.67;;
7001;SDS011;3541;53.230;10.518;2024-01-16T08:26:47;5.93;;;3.03;;
7001;SDS011;3541;53.230;10.518;2024-01-16T08:29:14;5.63;;;2.63;;
7001;SDS011;3541;53.230;10.518;2024-01-16T08:31:41;10.80;;;3.10;;
7001;SDS011;3541;53.230;10.518;2024-01-16T08:34:07;6.23;;;2.80;;
7001;SDS011;3541;53.230;10.518;2024-01-16T08:36:34;8.70;;;3.10;;
7001;SDS011;3541;53.230;10.518;2024-01-16T08:39:01;5.47;;;2.87;;
7001;SDS011;3541;53.230;10.518;2024-01-16T08:41:29;5.00;;;2.57;;
7001;SDS011;3541;53.230;10.518;2024-01-16T08:43:55;7.17;;;2.53;;
7001;SDS011;3541;53.230;10.518;2024-01-16T08:46:22;9.00;;;2.70;;
7001;SDS011;3541;53.230;10.518;2024-01-16T08:48:49;6.30;;;3.93;;
7001;SDS011;3541;53.230;10.518;2024-01-16T08:51:15;6.03;;;2.90;;
7001;SDS011;3541;53.230;10.518;2024-01-16T08:53:42;6.23;;;2.40;;
7001;SDS011;3541;53.230;10.518;2024-01-16T08:56:08;3.80;;;2.70;;
7001;SDS011;3541;53.230;10.518;2024-01-16T08:58:38;5.13;;;2.57;;
7001;SDS011;3541;53.230;10.518;2024-01-16T09:01:05;8.57;;;2.90;;
7001;SDS011;3541;53.230;10.518;2024-01-16T09:03:31;4.57;;;2.57;;
7001;SDS011;3541;53.230;10.518;2024-01-16T09:05:58;7.07;;;2.43;;
7001;SDS011;3541;53.230;10.518;2024-01-16T09:08:25;4.43;;;3.27;;
7001;SDS011;3541;53.230;10.518;2024-01-16T09:10:52;5.73;;;3.23;;
7001;SDS011;3541;53.230;10.518;2024-01-16T09:13:19;10.27;;;3.40;;
7001;SDS011;3541;53.230;10.518;2024-01-16T09:15:47;5.70;;;3.47;;
7001;SDS011;3541;53.230;10.518;2024-01-16T09:18:14;6.27;;;2.73;;
7001;SDS011;3541;53.230;10.518;2024-01-16T09:20:41;4.80;;;2.73;;
7001;SDS011;3541;53.230;10.518;2024-01-16T09:23:08;4.70;;;3.00;;
7001;SDS011;3541;53.230;10.518;2024-01-16T09:25:35;5.40;;;3.30;;
7001;SDS011;3541;53.230;10.518;2024-01-16T09:28:02;5.90;;;2.90;;
7001;SDS011;3541;53.230;10.518;2024-01-16T09:30:29;9.13;;;3.40;;
7001;SDS011;3541;53.230;10.518;2024-01-16T09:32:56;8.00;;;3.13;;
7001;SDS011;3541;53.230;10.518;2024-01-16T09:35:23;10.97;;;3.40;;
7001;SDS011;3541;53.230;10.518;2024-01-16T09:37:49;7.60;;;3.10;;
7001;SDS011;3541;53.230;10.518;2024-01-16T09:40:16;8.53;;;3.50;;
7001;SDS011;3541;53.230;10.518;2024-01-16T09:42:43;8.37;;;3.20;;
7001;SDS011;3541;53.230;10.518;2024-01-16T09:45:10;6.00;;;3.00;;
7001;SDS011;3541;53.230;10.518;2024-01-16T09:47:40;9.90;;;3.43;;
7001;SDS011;3541;53.230;10.518;2024-01-16T09:50:08;5.73;;;3.27;;
7001;SDS011;3541;53.230;10.518;2024-01-16T09:52:36;9.37;;;3.27;;
7001;SDS011;3541;53.230;10.518;2024-01-16T09:55:04;9.37;;;3.53;;
7001;SDS011;3541;53.230;10.518;2024-01-16T09:57:31;7.20;;;3.17;;
7001;SDS011;3541;53.230;10.518;2024-01-16T09:59:59;9.50;;;3.67;;
7001;SDS011;3541;53.230;10.518;2024-01-16T10:02:28;8.67;;;4.10;;
7001;SDS011;3541;53.230;10.518;2024-01-16T10:04:55;8.30;;;3.27;;
7001;SDS011;3541;53.230;10.518;2024-01-16T10:07:23;8.10;;;4.20;;
7001;SDS011;3541;53.230;10.518;2024-01-16T10:09:55;8.70;;;3.70;;
7001;SDS011;3541;53.230;10.518;2024-01-16T10:12:22;7.40;;;3.10;;
7001;SDS011;3541;53.230;10.518;2024-01-16T10:14:49;6.00;;;3.13;;
7001;SDS011;3541;53.230;10.518;2024-01-16T10:17:17;10.00;;;3.30;;
7001;SDS011;3541;53.230;10.518;2024-01-16T10:19:47;8.40;;;3.20;;
7001;SDS011;3541;53.230;10.518;2024-01-16T10:22:19;4.90;;;3.07;;
7001;SDS011;3541;53.230;10.518;2024-01-16T10:24:48;8.03;;;3.63;;
7001;SDS011;3541;53.230;10.518;2024-01-16T10:27:15;4.30;;;3.10;;
7001;SDS011;3541;53.230;10.518;2024-01-16T10:29:49;6.50;;;3.17;;
7001;SDS011;3541;53.230;10.518;2024-01-16T10:32:26;6.73;;;3.27;;
7001;SDS011;3541;53.230;10.518;2024-01-16T10:35:00;5.60;;;2.60;;
7001;SDS011;3541;53.230;10.518;2024-01-16T10:37:31;8.37;;;3.37;;
7001;SDS011;3541;53.230;10.518;2024-01-16T10:40:09;3.93;;;3.17;;
7001;SDS011;3541;53.230;10.518;2024-01-16T10:42:36;10.83;;;3.67;;
7001;SDS011;3541;53.230;10.518;2024-01-16T10:45:04;10.40;;;2.87;;
7001;SDS011;3541;53.230;10.518;2024-01-16T10:47:31;7.67;;;3.50;;
7001;SDS011;3541;53.230;10.518;2024-01-16T10:50:01;7.97;;;3.63;;
7001;SDS011;3541;53.230;10.518;2024-01-16T10:52:29;11.50;;;4.27;;
7001;SDS011;3541;53.230;10.518;2024-01-16T10:54:59;9.13;;;4.10;;
7001;SDS011;3541;53.230;10.518;2024-01-16T10:57:31;8.10;;;3.20;;
7001;SDS011;3541;53.230;10.518;2024-01-16T11:00:00;8.17;;;3.77;;
7001;SDS011;3541;53.230;10.518;2024-01-16T11:02:35;6.30;;;3.40;;
7001;SDS011;3541;53.230;10.518;2024-01-16T11:05:04;7.80;;;3.17;;
7001;SDS011;3541;53.230;10.518;2024-01-16T11:07:32;8.00;;;3.40;;
7001;SDS011;3541;53.230;10.518;2024-01-16T11:10:01;4.53;;;2.90;;
7001;SDS011;3541;53.230;10.518;2024-01-16T11:12:28;7.00;;;3.10;;
7001;SDS011;3541;53.230;10.518;2024-01-16T11:14:57;8.87;;;3.67;;
7001;SDS011;3541;53.230;10.518;2024-01-16T11:17:26;6.37;;;2.80;;
7001;SDS011;3541;53.230;10.518;2024-01-16T11:19:53;4.90;;;2.80;;
7001;SDS011;3541;53.230;10.518;2024-01-16T11:22:20;6.40;;;3.43;;
7001;SDS011;3541;53.230;10.518;2024-01-16T11:24:58;6.50;;;3.20;;
7001;SDS011;3541;53.230;10.518;2024-01-16T11:27:34;8.73;;;3.10;;
7001;SDS011;3541;53.230;10.518;2024-01-16T11:30:02;8.17;;;3.30;;
7001;SDS011;3541;53.230;10.518;2024-01-16T11:32:33;7.70;;;3.13;;
7001;SDS011;3541;53.230;10.518;2024-01-16T11:35:01;5.23;;;3.07;;
7001;SDS011;3541;53.230;10.518;2024-01-16T11:37:29;6.73;;;3.23;;
7001;SDS011;3541;53.230;10.518;2024-01-16T11:42:46;11.63;;;4.10;;
7001;SDS011;3541;53.230;10.518;2024-01-16T11:48:18;8.87;;;3.27;;
7001;SDS011;3541;53.230;10.518;2024-01-16T11:50:45;8.47;;;4.33;;
7001;SDS011;3541;53.230;10.518;2024-01-16T11:53:30;12.73;;;5.83;;
7001;SDS011;3541;53.230;10.518;2024-01-16T11:56:02;15.07;;;7.60;;
7001;SDS011;3541;53.230;10.518;2024-01-16T11:58:45;11.33;;;6.30;;
7001;SDS011;3541;53.230;10.518;2024-01-16T12:01:16;12.90;;;8.00;;
7001;SDS011;3541;53.230;10.518;2024-01-16T12:03:45;15.80;;;7.17;;
7001;SDS011;3541;53.230;10.518;2024-01-16T12:06:15;14.67;;;5.97;;
7001;SDS011;3541;53.230;10.518;2024-01-16T12:08:42;6.97;;;4.70;;
7001;SDS011;3541;53.230;10.518;2024-01-16T12:11:09;8.03;;;5.93;;
7001;SDS011;3541;53.230;10.518;2024-01-16T12:13:35;7.00;;;3.40;;
7001;SDS011;3541;53.230;10.518;2024-01-16T12:16:02;6.53;;;4.03;;
7001;SDS011;3541;53.230;10.518;2024-01-16T12:18:31;11.00;;;5.17;;
7001;SDS011;3541;53.230;10.518;2024-01-16T12:21:03;12.07;;;5.07;;
7001;SDS011;3541;53.230;10.518;2024-01-16T12:23:34;8.63;;;4.63;;
7001;SDS011;3541;53.230;10.518;2024-01-16T12:26:01;14.67;;;6.50;;
7001;SDS011;3541;53.230;10.518;2024-01-16T12:28:28;9.67;;;4.43;;
7001;SDS011;3541;53.230;10.518;2024-01-16T12:30:56;9.87;;;3.67;;
7001;SDS011;3541;53.230;10.518;2024-01-16T12:33:22;21.80;;;7.60;;
7001;SDS011;3541;53.230;10.518;2024-01-16T12:35:50;18.80;;;7.37;;
7001;SDS011;3541;53.230;10.518;2024-01-16T12:38:27;10.43;;;5.17;;
7001;SDS011;3541;53.230;10.518;2024-01-16T12:40:53;14.00;;;4.70;;
7001;SDS011;3541;53.230;10.518;2024-01-16T12:43:20;18.07;;;7.47;;
7001;SDS011;3541;53.230;10.518;2024-01-16T12:45:46;7.90;;;3.67;;
7001;SDS011;3541;53.230;10.518;2024-01-16T12:48:22;13.70;;;4.50;;
7001;SDS011;3541;53.230;10.518;2024-01-16T12:50:50;6.77;;;4.17;;
7001;SDS011;3541;53.230;10.518;2024-01-16T12:53:21;7.80;;;4.13;;
7001;SDS011;3541;53.230;10.518;2024-01-16T12:55:50;10.93;;;4.20;;
7001;SDS011;3541;53.230;10.518;2024-01-16T12:58:23;8.83;;;4.20;;
7001;SDS011;3541;53.230;10.518;2024-01-16T13:00:53;6.33;;;4.03;;
7001;SDS011;3541;53.230;10.518;2024-01-16T13:03:21;12.47;;;4.40;;
7001;SDS011;3541;53.230;10.518;2024-01-16T13:05:55;9.70;;;4.27;;
7001;SDS011;3541;53.230;10.518;2024-01-16T13:08:23;7.57;;;3.90;;
7001;SDS011;3541;53.230;10.518;2024-01-16T13:11:01;12.83;;;4.33;;
7001;SDS011;3541;53.230;10.518;2024-01-16T13:13:28;11.10;;;4.93;;
7001;SDS011;3541;53.230;10.518;2024-01-16T13:15:55;16.30;;;6.03;;
7001;SDS011;3541;53.230;10.518;2024-01-16T13:18:23;7.07;;;4.33;;
7001;SDS011;3541;53.230;10.518;2024-01-16T13:20:53;13.90;;;5.13;;
7001;SDS011;3541;53.230;10.518;2024-01-16T13:23:22;9.10;;;4.47;;
7001;SDS011;3541;53.230;10.518;2024-01-16T13:25:50;10.07;;;4.53;;
7001;SDS011;3541;53.230;10.518;2024-01-16T13:28:18;9.50;;;5.53;;
7001;SDS011;3541;53.230;10.518;2024-01-16T13:30:46;15.07;;;4.60;;
7001;SDS011;3541;53.230;10.518;2024-01-16T13:33:13;7.50;;;4.20;;
7001;SDS011;3541;53.230;10.518;2024-01-16T13:35:41;13.37;;;5.17;;
7001;SDS011;3541;53.230;10.518;2024-01-16T13:38:09;11.37;;;4.37;;
7001;SDS011;3541;53.230;10.518;2024-01-16T13:40:39;12.57;;;4.83;;
7001;SDS011;3541;53.230;10.518;2024-01-16T13:43:05;8.33;;;4.93;;
7001;SDS011;3541;53.230;10.518;2024-01-16T13:45:32;8.43;;;4.33;;
7001;SDS011;3541;53.230;10.518;2024-01-16T13:48:00;5.77;;;4.03;;
7001;SDS011;3541;53.230;10.518;2024-01-16T13:50:27;8.40;;;4.40;;
7001;SDS011;3541;53.230;10.518;2024-01-16T13:52:54;8.67;;;3.87;;
7001;SDS011;3541;53.230;10.518;2024-01-16T13:55:21;6.43;;;4.47;;
7001;SDS011;3541;53.230;10.518;2024-01-16T13:57:49;8.83;;;5.37;;
7001;SDS011;3541;53.230;10.518;2024-01-16T14:00:16;8.90;;;5.40;;
7001;SDS011;3541;53.230;10.518;2024-01-16T14:02:43;11.50;;;4.40;;
7001;SDS011;3541;53.230;10.518;2024-01-16T14:05:11;10.43;;;4.40;;
7001;SDS011;3541;53.230;10.518;2024-01-16T14:07:40;9.27;;;4.33;;
7001;SDS011;3541;53.230;10.518;2024-01-16T14:10:07;8.40;;;4.83;;
7001;SDS011;3541;53.230;10.518;2024-01-16T14:12:35;11.70;;;4.77;;
7001;SDS011;3541;53.230;10.518;2024-01-16T14:15:03;5.47;;;4.50;;
7001;SDS011;3541;53.230;10.518;2024-01-16T14:17:34;10.57;;;4.33;;
7001;SDS011;3541;53.230;10.518;2024-01-16T14:20:01;12.20;;;4.77;;
7001;SDS011;3541;53.230;10.518;2024-01-16T14:22:30;9.03;;;4.37;;
7001;SDS011;3541;53.230;10.518;2024-01-16T14:24:56;8.67;;;4.33;;
7001;SDS011;3541;53.230;10.518;2024-01-16T14:27:23;16.80;;;7.07;;
7001;SDS011;3541;53.230;10.518;2024-01-16T14:29:50;9.00;;;5.17;;
7001;SDS011;3541;53.230;10.518;2024-01-16T14:32:18;9.57;;;4.10;;
7001;SDS011;3541;53.230;10.518;2024-01-16T14:34:45;11.60;;;4.70;;
7001;SDS011;3541;53.230;10.518;2024-01-16T14:37:11;8.57;;;4.53;;
7001;SDS011;3541;53.230;10.518;2024-01-16T14:39:38;11.63;;;4.83;;
7001;SDS011;3541;53.230;10.518;2024-01-16T14:42:05;9.53;;;6.00;;
7001;SDS011;3541;53.230;10.518;2024-01-16T14:44:32;10.37;;;5.50;;
7001;SDS011;3541;53.230;10.518;2024-01-16T14:46:59;11.37;;;5.13;;
7001;SDS011;3541;53.230;10.518;2024-01-16T14:49:27;11.27;;;4.17;;
7001;SDS011;3541;53.230;10.518;2024-01-16T14:51:56;6.20;;;4.23;;
7001;SDS011;3541;53.230;10.518;2024-01-16T14:54:23;12.93;;;7.43;;
7001;SDS011;3541;53.230;10.518;2024-01-16T14:56:50;8.50;;;5.13;;
7001;SDS011;3541;53.230;10.518;2024-01-16T14:59:17;13.13;;;4.97;;
7001;SDS011;3541;53.230;10.518;2024-01-16T15:01:43;9.13;;;5.30;;
7001;SDS011;3541;53.230;10.518;2024-01-16T15:04:10;10.93;;;5.10;;
7001;SDS011;3541;53.230;10.518;2024-01-16T15:06:38;8.10;;;5.17;;
7001;SDS011;3541;53.230;10.518;2024-01-16T15:09:05;8.43;;;4.67;;